CNC3 weather

Brampton Airport
Brampton, Ontario, Canada

Public forecast

Using degrees Celsius for public forecast. Weather courtesy of forecast.io.

Closest aviation weather report (METAR) to Brampton Airport

Closest report is Lester B. Pearson International Airport, 11.7 nm (21.7 km) ESE. Retrieved 2019/10/21 14:00 UTC (34 seconds ago):

CYYZ 211400Z 10009G16KT 15SM BKN250 13/10 A3006 RMK CI5 SLP183

Closest aviation forecast (TAF) to Brampton Airport

Closest forecast is Lester B. Pearson International Airport, 11.7 nm (21.7 km) ESE. Retrieved 2019/10/21 15:42 UTC (0 seconds ago):

TAF CYYZ 211438Z 2115/2218 09010G20KT P6SM BKN250 BECMG 2117/2119 09015G25KT BKN220 FM220100 10015KT P6SM SCT080 BKN170 TEMPO 2201/2204 P6SM -SHRA BKN060 OVC180 FM220400 11010KT P6SM -RA OVC050 TEMPO 2204/2206 5SM SHRA BR OVC030 FM220600 13010KT 4SM RA BR OVC020 FM220800 14012KT 3SM RA BR OVC008 PROB40 2208/2214 2SM RA BR OVC003 FM221400 17012KT 4SM -RA BR SCT006 OVC012 PROB30 2214/2218 2SM SHRA BR OVC006 RMK NXT FCST BY 211800Z